createdAt,value
2023-11-12T00:01:41.494Z,91.80
2023-11-12T00:04:10.346Z,91.70
2023-11-12T00:06:41.827Z,91.80
2023-11-12T00:09:10.617Z,91.90
2023-11-12T00:11:39.406Z,91.90
2023-11-12T00:14:07.570Z,91.80
2023-11-12T00:16:35.579Z,91.90
2023-11-12T00:19:05.111Z,91.80
2023-11-12T00:21:32.962Z,92.00
2023-11-12T00:24:02.911Z,91.80
2023-11-12T00:26:30.902Z,91.90
2023-11-12T00:28:58.761Z,91.80
2023-11-12T00:31:26.625Z,91.90
2023-11-12T00:33:55.428Z,91.80
2023-11-12T00:36:24.022Z,91.70
2023-11-12T00:38:51.866Z,91.70
2023-11-12T00:41:21.647Z,91.70
2023-11-12T00:43:50.297Z,91.70
2023-11-12T00:46:18.288Z,91.70
2023-11-12T00:48:46.199Z,91.60
2023-11-12T00:51:14.007Z,91.70
2023-11-12T00:53:42.916Z,91.70
2023-11-12T00:56:10.784Z,91.70
2023-11-12T00:58:39.958Z,91.70
2023-11-12T01:01:08.054Z,91.70
2023-11-12T01:03:35.900Z,91.70
2023-11-12T01:06:04.506Z,91.90
2023-11-12T01:08:32.504Z,91.50
2023-11-12T01:11:00.874Z,91.60
2023-11-12T01:13:28.852Z,91.70
2023-11-12T01:15:58.251Z,91.70
2023-11-12T01:18:26.790Z,91.50
2023-11-12T01:20:54.956Z,91.60
2023-11-12T01:23:23.038Z,91.50
2023-11-12T01:25:50.904Z,91.70
2023-11-12T01:28:18.732Z,91.60
2023-11-12T01:30:46.704Z,91.50
2023-11-12T01:33:15.933Z,91.70
2023-11-12T01:35:43.862Z,91.60
2023-11-12T01:38:11.921Z,91.80
2023-11-12T01:40:41.115Z,91.80
2023-11-12T01:43:09.153Z,91.70
2023-11-12T01:45:37.198Z,91.70
2023-11-12T01:48:09.174Z,91.90
2023-11-12T01:50:39.276Z,91.90
2023-11-12T01:53:07.298Z,92.10
2023-11-12T01:55:35.599Z,92.00
2023-11-12T01:58:05.397Z,92.10
2023-11-12T02:00:34.292Z,92.10
2023-11-12T02:03:06.489Z,92.20
2023-11-12T02:05:34.610Z,92.30
2023-11-12T02:08:05.143Z,92.30
2023-11-12T02:10:36.652Z,92.30
2023-11-12T02:13:05.502Z,92.30
2023-11-12T02:15:33.778Z,92.50
2023-11-12T02:18:02.015Z,92.50
2023-11-12T02:20:30.048Z,92.60
2023-11-12T02:22:58.270Z,92.50
2023-11-12T02:25:27.493Z,92.70
2023-11-12T02:27:55.324Z,92.70
2023-11-12T02:30:23.162Z,92.50
2023-11-12T02:32:51.168Z,92.60
2023-11-12T02:35:19.137Z,92.60
2023-11-12T02:37:47.117Z,92.60
2023-11-12T02:40:16.107Z,92.70
2023-11-12T02:42:45.666Z,92.50
2023-11-12T02:45:14.392Z,92.60
2023-11-12T02:47:44.314Z,92.30
2023-11-12T02:50:36.666Z,92.40
2023-11-12T02:53:08.238Z,92.20
2023-11-12T02:55:37.254Z,92.40
2023-11-12T02:58:06.960Z,92.40
2023-11-12T03:00:35.125Z,92.30
2023-11-12T03:03:04.139Z,92.20
2023-11-12T03:05:33.424Z,92.30
2023-11-12T03:08:01.494Z,92.10
2023-11-12T03:10:29.500Z,92.20
2023-11-12T03:12:57.373Z,92.20
2023-11-12T03:15:26.758Z,92.30
2023-11-12T03:17:54.741Z,92.20
2023-11-12T03:20:24.433Z,92.10
2023-11-12T03:22:52.321Z,92.40
2023-11-12T03:25:20.113Z,92.50
2023-11-12T03:27:47.987Z,92.50
2023-11-12T03:30:16.078Z,92.60
2023-11-12T03:32:44.415Z,92.60
2023-11-12T03:35:12.852Z,92.50
2023-11-12T03:37:40.694Z,92.50
2023-11-12T03:40:10.407Z,92.50
2023-11-12T03:42:38.325Z,92.50
2023-11-12T03:45:07.267Z,92.70
2023-11-12T03:47:35.155Z,92.80
2023-11-12T03:50:05.089Z,92.60
2023-11-12T03:52:32.864Z,92.60
2023-11-12T03:55:00.693Z,92.60
2023-11-12T03:57:28.620Z,92.60
2023-11-12T03:59:56.714Z,92.60
2023-11-12T04:02:24.584Z,92.70
2023-11-12T04:04:53.493Z,92.50
2023-11-12T04:07:24.782Z,92.50
2023-11-12T04:09:52.644Z,92.60
2023-11-12T04:12:20.644Z,92.40
2023-11-12T04:14:48.502Z,92.60
2023-11-12T04:17:16.342Z,92.30
2023-11-12T04:19:44.767Z,92.30
2023-11-12T04:22:12.786Z,92.50
2023-11-12T04:24:42.031Z,92.50
2023-11-12T04:27:10.223Z,92.40
2023-11-12T04:29:38.236Z,92.40
2023-11-12T04:32:06.306Z,92.30
2023-11-12T04:34:34.088Z,92.50
2023-11-12T04:37:01.913Z,92.60
2023-11-12T04:39:29.721Z,92.60
2023-11-12T04:41:58.899Z,92.50
2023-11-12T04:44:26.740Z,92.70
2023-11-12T04:46:55.041Z,92.80
2023-11-12T04:49:25.399Z,92.90
2023-11-12T04:51:54.777Z,92.90
2023-11-12T04:54:22.647Z,92.90
2023-11-12T04:56:50.791Z,92.80
2023-11-12T04:59:20.010Z,92.80
2023-11-12T05:01:47.862Z,93.00
2023-11-12T05:04:15.734Z,92.80
2023-11-12T05:06:44.080Z,92.60
2023-11-12T05:09:12.296Z,92.50
2023-11-12T05:11:40.253Z,92.50
2023-11-12T05:14:08.838Z,92.50
2023-11-12T05:16:38.022Z,92.50
2023-11-12T05:19:07.768Z,92.60
2023-11-12T05:21:35.680Z,92.60
2023-11-12T05:24:03.733Z,92.60
2023-11-12T05:26:33.097Z,92.60
2023-11-12T05:29:00.735Z,92.50
2023-11-12T05:31:28.754Z,92.40
2023-11-12T05:33:57.938Z,92.40
2023-11-12T05:36:25.835Z,92.40
2023-11-12T05:38:53.939Z,92.40
2023-11-12T05:41:21.898Z,92.40
2023-11-12T05:43:51.575Z,92.30
2023-11-12T05:46:19.645Z,92.20
2023-11-12T05:48:47.572Z,92.20
2023-11-12T05:51:16.909Z,92.30
2023-11-12T05:53:44.645Z,92.00
2023-11-12T05:56:12.716Z,92.20
2023-11-12T05:58:40.722Z,92.10
2023-11-12T06:01:08.502Z,92.10
2023-11-12T06:03:36.446Z,92.10
2023-11-12T06:06:04.529Z,92.20
2023-11-12T06:08:33.897Z,92.20
2023-11-12T06:11:01.679Z,92.00
2023-11-12T06:13:29.513Z,92.00
2023-11-12T06:15:57.552Z,92.00
2023-11-12T06:18:25.430Z,92.20
2023-11-12T06:20:53.380Z,92.10
2023-11-12T06:23:21.238Z,92.10
2023-11-12T06:25:50.443Z,92.10
2023-11-12T06:28:18.598Z,92.20
2023-11-12T06:30:46.426Z,92.10
2023-11-12T06:33:14.571Z,92.10
2023-11-12T06:35:42.549Z,92.10
2023-11-12T06:38:10.350Z,92.10
2023-11-12T06:40:38.176Z,92.20
2023-11-12T06:43:07.293Z,92.10
2023-11-12T06:45:35.346Z,92.10
2023-11-12T06:48:03.260Z,92.10
2023-11-12T06:50:31.115Z,92.10
2023-11-12T06:52:58.932Z,92.30
2023-11-12T06:55:30.184Z,92.20
2023-11-12T06:57:58.007Z,92.30
2023-11-12T07:00:27.141Z,92.30
2023-11-12T07:02:55.646Z,92.30
2023-11-12T07:05:23.601Z,92.40
2023-11-12T07:07:51.414Z,92.40
2023-11-12T07:10:20.233Z,92.60
2023-11-12T07:12:48.081Z,92.60
2023-11-12T07:15:16.271Z,92.70
2023-11-12T07:17:49.127Z,92.60
2023-11-12T07:20:17.002Z,92.50
2023-11-12T07:22:46.330Z,92.30
2023-11-12T07:25:14.120Z,92.30
2023-11-12T07:27:44.330Z,92.20
2023-11-12T07:30:13.353Z,92.00
2023-11-12T07:32:41.237Z,92.10
2023-11-12T07:35:14.167Z,92.10
2023-11-12T07:37:43.080Z,92.00
2023-11-12T07:40:12.775Z,91.90
2023-11-12T07:42:41.270Z,92.00
2023-11-12T07:45:13.885Z,91.80
2023-11-12T07:47:43.614Z,91.80
2023-11-12T07:50:13.129Z,91.70
2023-11-12T07:52:42.703Z,91.60
2023-11-12T07:55:11.128Z,91.40
2023-11-12T07:57:39.007Z,91.50
2023-11-12T08:00:09.039Z,91.50
2023-11-12T08:02:38.025Z,91.60
2023-11-12T08:05:08.928Z,91.70
2023-11-12T08:07:39.002Z,92.10
2023-11-12T08:10:09.900Z,92.30
2023-11-12T08:12:39.301Z,92.50
2023-11-12T08:15:12.009Z,92.20
2023-11-12T08:17:39.916Z,92.10
2023-11-12T08:20:09.594Z,92.20
2023-11-12T08:22:38.900Z,92.30
2023-11-12T08:25:07.444Z,92.40
2023-11-12T08:27:35.832Z,92.40
2023-11-12T08:30:05.025Z,92.10
2023-11-12T08:32:33.017Z,91.90
2023-11-12T08:35:01.176Z,91.80
2023-11-12T08:37:29.105Z,91.50
2023-11-12T08:39:58.369Z,91.60
2023-11-12T08:42:27.809Z,91.40
2023-11-12T08:44:56.154Z,91.20
2023-11-12T08:47:24.133Z,90.80
2023-11-12T08:49:52.218Z,90.70
2023-11-12T08:52:20.122Z,90.40
2023-11-12T08:54:48.175Z,90.10
2023-11-12T08:57:17.430Z,89.90
2023-11-12T08:59:45.393Z,90.00
2023-11-12T09:02:13.777Z,90.40
2023-11-12T09:04:41.609Z,90.50
2023-11-12T09:07:09.988Z,90.30
2023-11-12T09:09:38.323Z,90.60
2023-11-12T09:12:06.936Z,90.70
2023-11-12T09:14:36.690Z,90.70
2023-11-12T09:17:05.180Z,90.80
2023-11-12T09:19:33.034Z,91.10
2023-11-12T09:22:00.865Z,91.00
2023-11-12T09:24:29.066Z,90.50
2023-11-12T09:26:56.944Z,90.10
2023-11-12T09:29:25.507Z,89.50
2023-11-12T09:31:54.672Z,89.10
2023-11-12T09:34:22.494Z,88.30
2023-11-12T09:36:50.428Z,87.90
2023-11-12T09:39:18.909Z,87.70
2023-11-12T09:41:52.691Z,87.90
2023-11-12T09:44:21.123Z,88.20
2023-11-12T09:47:02.330Z,87.60
2023-11-12T09:49:31.251Z,87.40
2023-11-12T09:51:59.426Z,86.60
2023-11-12T09:54:27.980Z,86.80
2023-11-12T09:57:06.361Z,87.20
2023-11-12T09:59:37.613Z,86.60
2023-11-12T10:02:07.928Z,86.70
2023-11-12T10:04:36.356Z,86.70
2023-11-12T10:07:06.111Z,86.50
2023-11-12T10:09:37.977Z,86.00
2023-11-12T10:12:07.121Z,85.70
2023-11-12T10:14:35.905Z,85.60
2023-11-12T10:17:12.097Z,85.60
2023-11-12T10:19:40.220Z,85.60
2023-11-12T10:22:08.779Z,85.50
2023-11-12T10:24:44.578Z,85.50
2023-11-12T10:27:15.300Z,85.20
2023-11-12T10:29:45.568Z,85.40
2023-11-12T10:32:27.588Z,85.70
2023-11-12T10:34:56.665Z,85.80
2023-11-12T10:37:24.814Z,86.30
2023-11-12T10:39:52.698Z,86.30
2023-11-12T10:42:24.034Z,86.50
2023-11-12T10:44:55.736Z,86.90
2023-11-12T10:47:27.770Z,87.60
2023-11-12T10:49:56.852Z,87.30
2023-11-12T10:52:25.201Z,86.70
2023-11-12T10:54:53.426Z,86.50
2023-11-12T10:57:22.744Z,85.50
2023-11-12T10:59:50.806Z,85.60
2023-11-12T11:02:20.197Z,85.20
2023-11-12T11:04:49.484Z,84.80
2023-11-12T11:07:17.969Z,85.40
2023-11-12T11:09:46.450Z,85.30
2023-11-12T11:12:15.573Z,85.10
2023-11-12T11:14:43.457Z,85.20
2023-11-12T11:17:38.505Z,84.20
2023-11-12T11:20:12.773Z,83.90
2023-11-12T11:22:40.868Z,83.40
2023-11-12T11:25:26.003Z,82.60
2023-11-12T11:28:19.018Z,81.80
2023-11-12T11:31:10.681Z,81.20
2023-11-12T11:33:48.311Z,81.00
2023-11-12T11:36:18.670Z,81.20
2023-11-12T11:39:14.093Z,80.80
2023-11-12T11:42:22.044Z,81.80
2023-11-12T11:44:50.649Z,81.40
2023-11-12T11:47:21.143Z,80.70
2023-11-12T11:49:49.886Z,81.20
2023-11-12T11:52:23.241Z,80.90
2023-11-12T11:54:58.535Z,80.30
2023-11-12T11:57:29.132Z,81.00
2023-11-12T11:59:58.003Z,80.70
2023-11-12T12:02:26.668Z,80.70
2023-11-12T12:04:56.282Z,80.50
2023-11-12T12:07:25.262Z,80.30
2023-11-12T12:09:57.624Z,80.60
2023-11-12T12:12:29.040Z,79.80
2023-11-12T12:14:56.953Z,80.30
2023-11-12T12:17:25.351Z,79.00
2023-11-12T12:19:53.617Z,78.80
2023-11-12T12:22:25.910Z,78.80
2023-11-12T12:24:57.051Z,79.20
2023-11-12T12:27:25.416Z,79.10
2023-11-12T12:29:55.897Z,78.90
2023-11-12T12:32:25.118Z,79.30
2023-11-12T12:34:57.485Z,78.80
2023-11-12T12:37:26.846Z,78.80
2023-11-12T12:40:02.017Z,78.80
2023-11-12T12:42:30.392Z,79.10
2023-11-12T12:44:59.863Z,79.20
2023-11-12T12:47:34.536Z,78.60
2023-11-12T12:50:17.374Z,78.90
2023-11-12T12:52:47.312Z,78.30
2023-11-12T12:55:18.005Z,78.50
2023-11-12T12:57:50.664Z,78.30
2023-11-12T13:00:23.141Z,79.10
2023-11-12T13:02:52.952Z,78.80
2023-11-12T13:05:22.863Z,78.30
2023-11-12T13:07:52.880Z,78.40
2023-11-12T13:10:23.343Z,78.70
2023-11-12T13:12:52.681Z,78.40
2023-11-12T13:15:22.736Z,78.90
2023-11-12T13:17:51.355Z,79.10
2023-11-12T13:20:22.520Z,79.60
2023-11-12T13:22:51.735Z,79.40
2023-11-12T13:25:19.810Z,79.50
2023-11-12T13:27:50.450Z,80.40
2023-11-12T13:30:18.538Z,80.30
2023-11-12T13:32:50.514Z,80.40
2023-11-12T13:35:18.973Z,80.90
2023-11-12T13:37:47.265Z,81.10
2023-11-12T13:40:16.295Z,81.30
2023-11-12T13:42:45.104Z,81.30
2023-11-12T13:45:14.876Z,81.70
2023-11-12T13:47:43.051Z,81.90
2023-11-12T13:50:15.173Z,82.00
2023-11-12T13:52:44.937Z,82.10
2023-11-12T13:55:19.576Z,82.40
2023-11-12T13:57:48.552Z,82.00
2023-11-12T14:00:18.614Z,82.20
2023-11-12T14:02:46.582Z,82.60
2023-11-12T14:05:17.842Z,82.30
2023-11-12T14:07:45.744Z,82.40
2023-11-12T14:10:15.680Z,82.80
2023-11-12T14:12:45.592Z,83.10
2023-11-12T14:15:19.034Z,83.20
2023-11-12T14:17:47.492Z,83.00
2023-11-12T14:20:23.556Z,83.50
2023-11-12T14:22:51.795Z,83.40
2023-11-12T14:25:21.194Z,83.50
2023-11-12T14:27:50.498Z,83.60
2023-11-12T14:30:20.034Z,83.70
2023-11-12T14:32:49.137Z,84.10
2023-11-12T14:35:18.888Z,84.20
2023-11-12T14:37:48.478Z,84.70
2023-11-12T14:40:17.575Z,84.80
2023-11-12T14:42:46.515Z,85.00
2023-11-12T14:45:24.973Z,85.50
2023-11-12T14:47:56.936Z,86.10
2023-11-12T14:50:26.248Z,86.50
2023-11-12T14:52:55.180Z,86.90
2023-11-12T14:55:25.902Z,87.20
2023-11-12T14:57:56.241Z,87.50
2023-11-12T15:00:29.814Z,87.70
2023-11-12T15:02:58.528Z,87.90
2023-11-12T15:05:28.106Z,88.40
2023-11-12T15:07:56.239Z,88.60
2023-11-12T15:10:24.269Z,88.70
2023-11-12T15:12:52.902Z,88.70
2023-11-12T15:15:22.375Z,89.10
2023-11-12T15:17:52.658Z,89.10
2023-11-12T15:20:20.595Z,89.30
2023-11-12T15:22:51.174Z,89.20
2023-11-12T15:25:19.851Z,89.50
2023-11-12T15:27:49.575Z,89.70
2023-11-12T15:30:18.388Z,89.90
2023-11-12T15:32:47.045Z,90.20
2023-11-12T15:35:16.485Z,90.20
2023-11-12T15:37:46.363Z,90.30
2023-11-12T15:40:20.865Z,90.50
2023-11-12T15:42:51.202Z,90.40
2023-11-12T15:45:20.403Z,90.30
2023-11-12T15:47:49.306Z,90.40
2023-11-12T15:50:18.705Z,90.40
2023-11-12T15:52:47.173Z,90.80
2023-11-12T15:55:18.415Z,91.10
2023-11-12T15:57:46.498Z,91.00
2023-11-12T16:00:15.944Z,90.80
2023-11-12T16:02:45.433Z,91.00
2023-11-12T16:05:13.977Z,91.10
2023-11-12T16:07:42.632Z,91.40
2023-11-12T16:10:13.380Z,91.40
2023-11-12T16:12:43.061Z,91.10
2023-11-12T16:15:14.405Z,91.10
2023-11-12T16:17:43.233Z,91.40
2023-11-12T16:20:13.595Z,91.40
2023-11-12T16:22:42.181Z,91.60
2023-11-12T16:25:11.097Z,91.70
2023-11-12T16:27:39.189Z,91.70
2023-11-12T16:30:09.846Z,91.40
2023-11-12T16:32:38.128Z,91.60
2023-11-12T16:35:06.790Z,91.80
2023-11-12T16:37:34.639Z,91.90
2023-11-12T16:40:04.341Z,91.70
2023-11-12T16:42:32.308Z,91.70
2023-11-12T16:45:00.235Z,91.70
2023-11-12T16:47:29.804Z,91.60
2023-11-12T16:49:58.256Z,91.60
2023-11-12T16:52:26.087Z,91.70
2023-11-12T16:54:54.805Z,91.80
2023-11-12T16:57:22.808Z,91.80
2023-11-12T16:59:51.504Z,91.70
2023-11-12T17:02:21.150Z,92.00
2023-11-12T17:04:50.662Z,92.10
2023-11-12T17:07:18.664Z,92.30
2023-11-12T17:09:46.966Z,91.90
2023-11-12T17:12:15.303Z,91.70
2023-11-12T17:14:43.847Z,91.70
2023-11-12T17:17:12.448Z,91.70
2023-11-12T17:19:40.822Z,91.70
2023-11-12T17:22:10.589Z,91.90
2023-11-12T17:24:38.486Z,91.80
2023-11-12T17:27:07.751Z,91.70
2023-11-12T17:29:36.209Z,92.10
2023-11-12T17:32:04.720Z,92.30
2023-11-12T17:34:32.658Z,92.10
2023-11-12T17:37:00.862Z,92.10
2023-11-12T17:39:30.041Z,92.20
2023-11-12T17:41:59.006Z,92.30
2023-11-12T17:44:27.037Z,92.40
2023-11-12T17:46:58.359Z,92.10
2023-11-12T17:49:26.364Z,92.20
2023-11-12T17:51:54.226Z,92.10
2023-11-12T17:54:22.426Z,92.10
2023-11-12T17:56:51.978Z,92.20
2023-11-12T17:59:19.811Z,92.60
2023-11-12T18:01:49.558Z,92.30
2023-11-12T18:04:18.783Z,92.30
2023-11-12T18:06:48.720Z,92.50
2023-11-12T18:09:19.008Z,92.20
2023-11-12T18:11:46.894Z,92.00
2023-11-12T18:14:16.553Z,91.90
2023-11-12T18:16:45.767Z,92.10
2023-11-12T18:19:14.613Z,92.00
2023-11-12T18:21:43.425Z,91.90
2023-11-12T18:24:12.411Z,91.80
2023-11-12T18:26:40.749Z,91.90
2023-11-12T18:29:08.960Z,91.90
2023-11-12T18:31:39.145Z,92.20
2023-11-12T18:34:09.560Z,92.20
2023-11-12T18:36:37.580Z,92.10
2023-11-12T18:39:06.883Z,92.00
2023-11-12T18:41:38.077Z,92.30
2023-11-12T18:44:07.188Z,92.10
2023-11-12T18:46:35.886Z,92.20
2023-11-12T18:49:05.349Z,92.30
2023-11-12T18:51:33.244Z,92.40
2023-11-12T18:54:01.158Z,92.50
2023-11-12T18:56:29.151Z,92.60
2023-11-12T18:58:57.808Z,92.40
2023-11-12T19:01:25.840Z,92.50
2023-11-12T19:03:53.933Z,92.30
2023-11-12T19:06:23.291Z,92.40
2023-11-12T19:08:51.139Z,92.30
2023-11-12T19:11:20.397Z,92.40
2023-11-12T19:13:48.253Z,92.50
2023-11-12T19:16:16.998Z,92.60
2023-11-12T19:18:45.138Z,92.70
2023-11-12T19:21:13.032Z,92.60
2023-11-12T19:23:42.463Z,92.70
2023-11-12T19:26:10.408Z,92.60
2023-11-12T19:28:38.264Z,92.70
2023-11-12T19:31:06.386Z,92.60
2023-11-12T19:33:34.249Z,92.50
2023-11-12T19:36:02.126Z,92.40
2023-11-12T19:38:30.332Z,92.50
2023-11-12T19:41:00.084Z,92.70
2023-11-12T19:43:28.175Z,92.70
2023-11-12T19:45:56.029Z,92.70
2023-11-12T19:48:23.861Z,92.70
2023-11-12T19:50:51.808Z,92.80
2023-11-12T19:53:21.648Z,92.80
2023-11-12T19:55:50.473Z,92.60
2023-11-12T19:58:19.799Z,92.50
2023-11-12T20:00:47.681Z,92.60
2023-11-12T20:03:15.596Z,92.60
2023-11-12T20:05:43.440Z,92.70
2023-11-12T20:08:11.474Z,92.80
2023-11-12T20:10:40.476Z,92.80
2023-11-12T20:13:08.340Z,92.90
2023-11-12T20:15:37.822Z,92.90
2023-11-12T20:18:10.121Z,93.00
2023-11-12T20:20:40.160Z,92.70
2023-11-12T20:23:08.953Z,92.90
2023-11-12T20:25:37.397Z,92.80
2023-11-12T20:28:12.194Z,92.90
2023-11-12T20:30:44.873Z,93.00
2023-11-12T20:33:14.395Z,92.90
2023-11-12T20:35:48.080Z,92.80
2023-11-12T20:38:16.539Z,92.80
2023-11-12T20:40:44.661Z,92.80
2023-11-12T20:43:12.602Z,92.70
2023-11-12T20:45:42.808Z,92.80
2023-11-12T20:48:14.073Z,92.50
2023-11-12T20:50:42.179Z,92.60
2023-11-12T20:53:10.665Z,92.70
2023-11-12T20:55:40.290Z,92.60
2023-11-12T20:58:08.382Z,92.70
2023-11-12T21:00:36.416Z,92.90
2023-11-12T21:03:06.024Z,92.80
2023-11-12T21:05:34.191Z,92.70
2023-11-12T21:08:02.320Z,92.70
2023-11-12T21:10:33.761Z,92.80
2023-11-12T21:13:01.731Z,92.70
2023-11-12T21:15:30.242Z,93.00
2023-11-12T21:17:58.619Z,93.10
2023-11-12T21:20:27.974Z,93.10
2023-11-12T21:22:55.674Z,93.10
2023-11-12T21:25:23.497Z,93.00
2023-11-12T21:27:51.473Z,92.80
2023-11-12T21:30:26.863Z,92.90
2023-11-12T21:32:58.477Z,93.00
2023-11-12T21:35:28.177Z,93.00
2023-11-12T21:37:58.490Z,93.10
2023-11-12T21:40:26.486Z,93.20
2023-11-12T21:42:54.335Z,92.90
2023-11-12T21:45:28.269Z,93.10
2023-11-12T21:47:56.381Z,93.00
2023-11-12T21:50:25.272Z,92.90
2023-11-12T21:52:57.826Z,93.00
2023-11-12T21:55:27.017Z,93.30
2023-11-12T21:57:55.605Z,93.10
2023-11-12T22:00:27.314Z,93.10
2023-11-12T22:02:55.425Z,93.10
2023-11-12T22:05:25.583Z,93.30
2023-11-12T22:07:54.975Z,93.40
2023-11-12T22:10:23.182Z,93.60
2023-11-12T22:12:52.155Z,93.30
2023-11-12T22:15:20.308Z,93.40
2023-11-12T22:17:49.746Z,93.30
2023-11-12T22:20:18.534Z,93.20
2023-11-12T22:22:47.745Z,93.10
2023-11-12T22:25:17.481Z,93.20
2023-11-12T22:27:47.627Z,93.20
2023-11-12T22:30:16.889Z,93.40
2023-11-12T22:32:45.599Z,93.30
2023-11-12T22:35:13.611Z,93.20
2023-11-12T22:37:41.952Z,93.30
2023-11-12T22:40:10.584Z,93.40
2023-11-12T22:42:40.063Z,93.30
2023-11-12T22:45:10.554Z,93.00
2023-11-12T22:47:39.158Z,93.10
2023-11-12T22:50:08.961Z,93.00
2023-11-12T22:52:37.429Z,93.10
2023-11-12T22:55:07.246Z,93.20
2023-11-12T22:57:36.237Z,93.10
2023-11-12T23:00:16.193Z,93.30
2023-11-12T23:02:45.019Z,93.10
2023-11-12T23:05:14.052Z,93.20
2023-11-12T23:07:43.191Z,93.20
2023-11-12T23:10:12.419Z,93.20
2023-11-12T23:12:40.397Z,93.00
2023-11-12T23:15:10.411Z,93.20
2023-11-12T23:17:38.517Z,93.20
2023-11-12T23:20:10.338Z,93.10
2023-11-12T23:22:38.596Z,93.20
2023-11-12T23:25:07.444Z,93.40
2023-11-12T23:27:35.311Z,93.50
2023-11-12T23:30:04.403Z,93.50
2023-11-12T23:32:33.637Z,93.30
2023-11-12T23:35:01.462Z,93.40
2023-11-12T23:37:29.606Z,93.30
2023-11-12T23:39:57.743Z,93.40
2023-11-12T23:42:25.599Z,93.40
2023-11-12T23:44:53.938Z,93.30
2023-11-12T23:47:21.989Z,93.30
2023-11-12T23:49:51.283Z,93.40
2023-11-12T23:52:20.013Z,93.30
2023-11-12T23:54:48.805Z,93.20
2023-11-12T23:57:16.735Z,93.20
2023-11-12T23:59:45.698Z,93.20
